createdAt,value
2023-04-09T00:01:15.522Z,8.60
2023-04-09T00:04:18.197Z,8.82
2023-04-09T00:07:20.724Z,8.67
2023-04-09T00:10:23.528Z,9.07
2023-04-09T00:13:38.519Z,8.48
2023-04-09T00:16:42.444Z,7.87
2023-04-09T00:19:44.840Z,8.82
2023-04-09T00:22:48.555Z,8.27
2023-04-09T00:25:51.128Z,8.43
2023-04-09T00:28:54.267Z,8.95
2023-04-09T00:31:56.840Z,8.23
2023-04-09T00:34:59.581Z,8.73
2023-04-09T00:38:01.909Z,8.77
2023-04-09T00:41:04.664Z,8.13
2023-04-09T00:44:06.970Z,9.40
2023-04-09T00:47:09.900Z,9.30
2023-04-09T00:50:12.387Z,8.98
2023-04-09T00:53:16.237Z,9.00
2023-04-09T00:56:21.631Z,8.47
2023-04-09T00:59:25.642Z,8.32
2023-04-09T01:02:28.737Z,9.00
2023-04-09T01:05:44.045Z,8.90
2023-04-09T01:09:17.691Z,9.00
2023-04-09T01:12:32.511Z,9.57
2023-04-09T01:15:40.093Z,8.98
2023-04-09T01:18:51.834Z,9.13
2023-04-09T01:21:57.861Z,9.20
2023-04-09T01:25:13.555Z,9.32
2023-04-09T01:28:19.104Z,9.30
2023-04-09T01:31:28.789Z,8.40
2023-04-09T01:34:32.356Z,9.18
2023-04-09T01:37:35.779Z,9.45
2023-04-09T01:40:38.340Z,10.03
2023-04-09T01:43:42.317Z,9.73
2023-04-09T01:46:47.219Z,9.02
2023-04-09T01:49:50.740Z,9.73
2023-04-09T01:52:53.671Z,8.63
2023-04-09T01:55:56.891Z,8.73
2023-04-09T01:58:59.403Z,10.57
2023-04-09T02:02:08.499Z,8.88
2023-04-09T02:05:15.492Z,9.02
2023-04-09T02:08:21.556Z,9.23
2023-04-09T02:11:28.251Z,9.70
2023-04-09T02:14:32.872Z,9.27
2023-04-09T02:17:35.698Z,10.02
2023-04-09T02:20:38.096Z,9.73
2023-04-09T02:23:40.880Z,9.65
2023-04-09T02:26:43.326Z,9.33
2023-04-09T02:29:46.564Z,9.27
2023-04-09T02:32:49.051Z,10.13
2023-04-09T02:35:51.732Z,9.50
2023-04-09T02:38:54.876Z,9.07
2023-04-09T02:41:58.134Z,9.67
2023-04-09T02:45:01.815Z,9.57
2023-04-09T02:48:07.229Z,9.38
2023-04-09T02:51:09.796Z,9.23
2023-04-09T02:54:12.595Z,8.95
2023-04-09T02:57:14.954Z,9.00
2023-04-09T03:00:17.769Z,9.33
2023-04-09T03:03:20.362Z,8.75
2023-04-09T03:06:23.333Z,9.50
2023-04-09T03:09:25.892Z,9.13
2023-04-09T03:12:28.458Z,9.03
2023-04-09T03:15:30.808Z,9.80
2023-04-09T03:18:33.473Z,9.20
2023-04-09T03:21:35.805Z,9.20
2023-04-09T03:24:38.529Z,9.02
2023-04-09T03:27:41.237Z,9.30
2023-04-09T03:30:44.562Z,9.73
2023-04-09T03:33:47.078Z,9.27
2023-04-09T03:36:49.826Z,9.85
2023-04-09T03:39:52.850Z,9.35
2023-04-09T03:42:56.338Z,9.67
2023-04-09T03:45:58.737Z,9.07
2023-04-09T03:49:01.892Z,8.95
2023-04-09T03:52:07.304Z,9.98
2023-04-09T03:55:10.936Z,10.00
2023-04-09T03:58:13.572Z,9.33
2023-04-09T04:01:16.622Z,9.53
2023-04-09T04:04:23.399Z,9.20
2023-04-09T04:07:27.150Z,10.23
2023-04-09T04:10:30.824Z,9.38
2023-04-09T04:13:33.332Z,10.63
2023-04-09T04:16:37.169Z,11.03
2023-04-09T04:19:39.859Z,11.30
2023-04-09T04:22:42.550Z,10.63
2023-04-09T04:25:44.947Z,11.70
2023-04-09T04:28:48.340Z,11.63
2023-04-09T04:31:51.164Z,11.00
2023-04-09T04:34:55.336Z,11.00
2023-04-09T04:37:58.433Z,10.50
2023-04-09T04:41:02.879Z,10.60
2023-04-09T04:44:06.566Z,10.30
2023-04-09T04:47:09.570Z,10.50
2023-04-09T04:50:12.145Z,10.85
2023-04-09T04:53:15.434Z,10.30
2023-04-09T04:56:18.468Z,9.73
2023-04-09T04:59:21.412Z,11.47
2023-04-09T05:02:24.701Z,9.80
2023-04-09T05:05:28.085Z,10.85
2023-04-09T05:08:30.436Z,8.82
2023-04-09T05:11:33.501Z,10.35
2023-04-09T05:14:36.410Z,9.63
2023-04-09T05:17:39.147Z,10.07
2023-04-09T05:20:42.093Z,9.90
2023-04-09T05:23:44.989Z,9.52
2023-04-09T05:26:47.357Z,9.75
2023-04-09T05:29:50.499Z,9.67
2023-04-09T05:32:53.246Z,9.73
2023-04-09T05:35:56.775Z,9.27
2023-04-09T05:38:59.214Z,9.70
2023-04-09T05:42:02.236Z,9.55
2023-04-09T05:45:05.524Z,9.20
2023-04-09T05:48:08.401Z,9.30
2023-04-09T05:51:11.247Z,9.50
2023-04-09T05:54:14.076Z,8.38
2023-04-09T05:57:16.908Z,9.25
2023-04-09T06:00:21.791Z,8.97
2023-04-09T06:03:24.676Z,8.10
2023-04-09T06:06:27.207Z,8.50
2023-04-09T06:09:29.973Z,8.85
2023-04-09T06:12:34.833Z,8.70
2023-04-09T06:15:39.365Z,8.55
2023-04-09T06:18:42.585Z,8.07
2023-04-09T06:21:45.367Z,7.57
2023-04-09T06:24:47.777Z,8.48
2023-04-09T06:27:50.611Z,7.90
2023-04-09T06:30:54.650Z,8.05
2023-04-09T06:33:57.427Z,8.10
2023-04-09T06:36:59.981Z,8.48
2023-04-09T06:40:03.347Z,8.18
2023-04-09T06:43:06.397Z,7.20
2023-04-09T06:46:11.557Z,6.65
2023-04-09T06:49:13.901Z,7.07
2023-04-09T06:52:16.680Z,7.70
2023-04-09T06:55:19.380Z,7.22
2023-04-09T06:58:22.294Z,7.65
2023-04-09T07:01:25.622Z,7.80
2023-04-09T07:04:28.508Z,7.33
2023-04-09T07:07:31.668Z,7.28
2023-04-09T07:10:34.327Z,7.22
2023-04-09T07:13:36.710Z,7.97
2023-04-09T07:16:39.368Z,8.13
2023-04-09T07:19:41.792Z,7.27
2023-04-09T07:22:44.495Z,7.35
2023-04-09T07:25:47.352Z,8.85
2023-04-09T07:28:50.662Z,8.40
2023-04-09T07:31:53.154Z,8.38
2023-04-09T07:34:57.393Z,6.80
2023-04-09T07:37:59.913Z,7.05
2023-04-09T07:41:02.552Z,6.20
2023-04-09T07:44:06.564Z,6.05
2023-04-09T07:47:09.727Z,6.15
2023-04-09T07:50:12.994Z,8.70
2023-04-09T07:53:15.696Z,6.62
2023-04-09T07:56:18.137Z,5.65
2023-04-09T07:59:20.866Z,5.45
2023-04-09T08:02:24.249Z,4.93
2023-04-09T08:05:27.292Z,5.43
2023-04-09T08:08:29.762Z,6.35
2023-04-09T08:11:33.127Z,5.90
2023-04-09T08:14:35.861Z,5.65
2023-04-09T08:17:38.891Z,5.28
2023-04-09T08:20:45.517Z,4.10
2023-04-09T08:23:48.595Z,5.12
2023-04-09T08:26:51.519Z,5.80
2023-04-09T08:29:54.525Z,6.70
2023-04-09T08:32:57.006Z,5.87
2023-04-09T08:36:00.837Z,5.97
2023-04-09T08:39:05.088Z,6.57
2023-04-09T08:42:08.943Z,6.68
2023-04-09T08:45:11.865Z,6.30
2023-04-09T08:48:14.684Z,6.82
2023-04-09T08:51:22.278Z,6.83
2023-04-09T08:54:26.841Z,6.30
2023-04-09T08:57:29.260Z,6.55
2023-04-09T09:00:32.561Z,6.55
2023-04-09T09:03:53.843Z,6.60
2023-04-09T09:07:06.816Z,7.73
2023-04-09T09:10:09.956Z,7.43
2023-04-09T09:13:20.296Z,7.22
2023-04-09T09:16:22.643Z,7.22
2023-04-09T09:19:25.299Z,7.20
2023-04-09T09:22:27.735Z,6.90
2023-04-09T09:25:30.837Z,6.93
2023-04-09T09:28:36.460Z,7.15
2023-04-09T09:31:49.961Z,7.15
2023-04-09T09:35:06.461Z,7.57
2023-04-09T09:38:09.129Z,7.60
2023-04-09T09:41:18.559Z,6.78
2023-04-09T09:44:32.924Z,7.15
2023-04-09T09:47:36.725Z,7.12
2023-04-09T09:50:43.179Z,7.20
2023-04-09T09:53:47.726Z,7.40
2023-04-09T09:56:52.713Z,7.20
2023-04-09T10:00:02.145Z,7.75
2023-04-09T10:03:32.200Z,7.35
2023-04-09T10:06:35.678Z,7.47
2023-04-09T10:09:41.574Z,7.80
2023-04-09T10:12:45.465Z,7.85
2023-04-09T10:15:48.814Z,7.25
2023-04-09T10:18:52.003Z,6.95
2023-04-09T10:22:01.111Z,6.93
2023-04-09T10:25:06.525Z,6.93
2023-04-09T10:28:17.693Z,7.53
2023-04-09T10:31:21.011Z,7.18
2023-04-09T10:34:27.112Z,6.82
2023-04-09T10:37:30.044Z,7.20
2023-04-09T10:40:32.445Z,6.80
2023-04-09T10:43:36.973Z,7.35
2023-04-09T10:46:42.230Z,7.40
2023-04-09T10:49:44.960Z,7.30
2023-04-09T10:52:52.287Z,8.02
2023-04-09T10:55:56.310Z,7.20
2023-04-09T10:58:58.679Z,7.82
2023-04-09T11:02:01.521Z,7.85
2023-04-09T11:05:26.105Z,7.82
2023-04-09T11:08:33.509Z,7.47
2023-04-09T11:11:37.031Z,7.30
2023-04-09T11:14:39.841Z,7.70
2023-04-09T11:17:43.188Z,7.97
2023-04-09T11:20:46.308Z,8.02
2023-04-09T11:23:52.997Z,7.40
2023-04-09T11:26:56.872Z,7.30
2023-04-09T11:29:59.317Z,8.63
2023-04-09T11:33:02.437Z,7.30
2023-04-09T11:36:06.502Z,7.97
2023-04-09T11:39:09.274Z,7.72
2023-04-09T11:42:15.745Z,7.20
2023-04-09T11:45:20.164Z,7.78
2023-04-09T11:48:24.967Z,7.70
2023-04-09T11:51:28.723Z,7.65
2023-04-09T11:54:34.721Z,8.32
2023-04-09T11:57:43.384Z,8.60
2023-04-09T12:00:46.182Z,8.00
2023-04-09T12:03:56.351Z,8.93
2023-04-09T12:06:59.026Z,8.15
2023-04-09T12:10:10.667Z,7.80
2023-04-09T12:13:13.759Z,7.50
2023-04-09T12:16:20.756Z,8.90
2023-04-09T12:19:25.900Z,8.18
2023-04-09T12:22:28.706Z,7.50
2023-04-09T12:25:35.646Z,7.53
2023-04-09T12:28:38.226Z,8.37
2023-04-09T12:31:40.679Z,7.93
2023-04-09T12:34:43.480Z,8.23
2023-04-09T12:37:46.228Z,8.52
2023-04-09T12:40:48.950Z,7.93
2023-04-09T12:43:51.678Z,8.87
2023-04-09T12:46:55.345Z,8.15
2023-04-09T12:49:57.716Z,9.07
2023-04-09T12:53:00.567Z,10.45
2023-04-09T12:56:03.150Z,8.85
2023-04-09T12:59:06.037Z,7.47
2023-04-09T13:02:08.841Z,8.50
2023-04-09T13:05:11.650Z,7.15
2023-04-09T13:08:14.002Z,7.43
2023-04-09T13:11:16.631Z,7.05
2023-04-09T13:14:18.928Z,7.57
2023-04-09T13:17:22.144Z,7.00
2023-04-09T13:20:24.955Z,7.15
2023-04-09T13:23:27.618Z,8.10
2023-04-09T13:26:31.670Z,8.38
2023-04-09T13:29:34.426Z,7.13
2023-04-09T13:32:36.890Z,8.02
2023-04-09T13:35:39.936Z,7.62
2023-04-09T13:38:42.496Z,7.35
2023-04-09T13:41:45.322Z,7.75
2023-04-09T13:44:47.774Z,7.13
2023-04-09T13:47:50.520Z,7.65
2023-04-09T13:50:52.981Z,7.22
2023-04-09T13:53:56.126Z,6.87
2023-04-09T13:56:58.513Z,7.25
2023-04-09T14:00:04.477Z,7.30
2023-04-09T14:03:07.609Z,6.95
2023-04-09T14:06:10.586Z,6.78
2023-04-09T14:09:13.284Z,7.30
2023-04-09T14:12:16.057Z,7.40
2023-04-09T14:15:18.424Z,6.83
2023-04-09T14:18:21.113Z,6.50
2023-04-09T14:21:24.331Z,6.32
2023-04-09T14:24:26.973Z,6.18
2023-04-09T14:27:29.386Z,6.45
2023-04-09T14:30:32.180Z,5.97
2023-04-09T14:33:34.817Z,6.62
2023-04-09T14:36:37.533Z,6.32
2023-04-09T14:39:39.864Z,6.75
2023-04-09T14:42:42.506Z,6.53
2023-04-09T14:45:44.796Z,6.50
2023-04-09T14:48:47.542Z,6.30
2023-04-09T14:51:50.074Z,6.32
2023-04-09T14:54:52.798Z,6.00
2023-04-09T14:57:55.272Z,6.28
2023-04-09T15:00:58.202Z,5.97
2023-04-09T15:04:00.856Z,5.90
2023-04-09T15:07:03.729Z,5.70
2023-04-09T15:10:06.738Z,6.45
2023-04-09T15:13:09.341Z,5.22
2023-04-09T15:16:20.403Z,5.97
2023-04-09T15:19:23.172Z,6.05
2023-04-09T15:22:25.704Z,5.60
2023-04-09T15:25:28.474Z,5.85
2023-04-09T15:28:31.002Z,5.68
2023-04-09T15:31:34.449Z,5.50
2023-04-09T15:34:37.140Z,5.15
2023-04-09T15:37:40.209Z,6.53
2023-04-09T15:40:42.882Z,5.65
2023-04-09T15:43:45.507Z,6.35
2023-04-09T15:46:47.888Z,6.00
2023-04-09T15:49:50.671Z,6.80
2023-04-09T15:52:53.874Z,7.05
2023-04-09T15:55:58.323Z,6.30
2023-04-09T15:59:02.245Z,6.85
2023-04-09T16:02:05.078Z,7.63
2023-04-09T16:05:08.276Z,7.40
2023-04-09T16:08:11.703Z,6.68
2023-04-09T16:11:15.477Z,8.02
2023-04-09T16:14:17.953Z,7.10
2023-04-09T16:17:20.574Z,6.90
2023-04-09T16:20:22.985Z,7.03
2023-04-09T16:23:28.519Z,7.00
2023-04-09T16:26:32.735Z,7.20
2023-04-09T16:29:36.384Z,6.78
2023-04-09T16:32:38.864Z,7.50
2023-04-09T16:35:42.166Z,6.45
2023-04-09T16:38:44.648Z,6.65
2023-04-09T16:41:47.447Z,6.80
2023-04-09T16:44:49.994Z,7.60
2023-04-09T16:47:56.259Z,7.00
2023-04-09T16:50:58.702Z,7.40
2023-04-09T16:54:01.788Z,7.18
2023-04-09T16:57:04.193Z,7.30
2023-04-09T17:00:07.903Z,7.18
2023-04-09T17:03:10.625Z,7.27
2023-04-09T17:06:13.371Z,6.85
2023-04-09T17:09:16.357Z,7.12
2023-04-09T17:12:18.989Z,7.25
2023-04-09T17:15:22.698Z,7.22
2023-04-09T17:18:25.547Z,7.10
2023-04-09T17:21:27.995Z,7.50
2023-04-09T17:24:30.988Z,7.78
2023-04-09T17:27:33.376Z,7.10
2023-04-09T17:30:36.260Z,7.93
2023-04-09T17:33:38.698Z,6.83
2023-04-09T17:36:42.444Z,7.28
2023-04-09T17:39:44.801Z,7.00
2023-04-09T17:42:47.461Z,6.37
2023-04-09T17:45:49.940Z,6.70
2023-04-09T17:48:53.078Z,6.30
2023-04-09T17:51:55.819Z,6.65
2023-04-09T17:54:58.460Z,7.15
2023-04-09T17:58:00.954Z,7.03
2023-04-09T18:01:07.508Z,6.72
2023-04-09T18:04:11.120Z,6.80
2023-04-09T18:07:13.684Z,6.53
2023-04-09T18:10:16.447Z,6.68
2023-04-09T18:13:18.850Z,6.68
2023-04-09T18:16:23.389Z,6.95
2023-04-09T18:19:25.897Z,7.60
2023-04-09T18:22:28.545Z,7.00
2023-04-09T18:25:30.811Z,6.95
2023-04-09T18:28:34.871Z,7.05
2023-04-09T18:31:37.352Z,7.18
2023-04-09T18:34:40.967Z,7.43
2023-04-09T18:37:43.678Z,8.13
2023-04-09T18:40:46.658Z,7.30
2023-04-09T18:43:48.977Z,7.97
2023-04-09T18:46:52.253Z,7.80
2023-04-09T18:49:54.693Z,7.40
2023-04-09T18:52:57.390Z,7.03
2023-04-09T18:55:59.722Z,7.50
2023-04-09T18:59:02.446Z,7.35
2023-04-09T19:02:05.501Z,7.68
2023-04-09T19:05:09.190Z,7.60
2023-04-09T19:08:11.816Z,7.72
2023-04-09T19:11:14.978Z,8.30
2023-04-09T19:14:17.439Z,7.65
2023-04-09T19:17:20.627Z,8.43
2023-04-09T19:20:23.155Z,9.00
2023-04-09T19:23:26.722Z,7.80
2023-04-09T19:26:29.633Z,8.20
2023-04-09T19:29:32.288Z,8.90
2023-04-09T19:32:34.836Z,8.48
2023-04-09T19:35:40.697Z,8.60
2023-04-09T19:38:43.172Z,8.38
2023-04-09T19:41:46.169Z,9.70
2023-04-09T19:44:49.623Z,8.30
2023-04-09T19:47:55.598Z,8.60
2023-04-09T19:50:58.526Z,8.93
2023-04-09T19:54:01.427Z,8.50
2023-04-09T19:57:04.238Z,8.73
2023-04-09T20:00:08.774Z,8.90
2023-04-09T20:03:13.535Z,8.27
2023-04-09T20:06:16.572Z,8.63
2023-04-09T20:09:19.067Z,8.80
2023-04-09T20:12:23.789Z,8.45
2023-04-09T20:15:26.651Z,8.52
2023-04-09T20:18:29.398Z,8.57
2023-04-09T20:21:31.772Z,9.27
2023-04-09T20:24:35.399Z,8.40
2023-04-09T20:27:38.677Z,8.40
2023-04-09T20:30:41.430Z,8.13
2023-04-09T20:33:43.830Z,8.70
2023-04-09T20:36:48.732Z,8.60
2023-04-09T20:39:51.704Z,8.57
2023-04-09T20:42:54.391Z,9.00
2023-04-09T20:45:57.371Z,8.48
2023-04-09T20:49:01.541Z,8.40
2023-04-09T20:52:04.034Z,8.80
2023-04-09T20:55:07.145Z,9.05
2023-04-09T20:58:09.570Z,8.25
2023-04-09T21:01:12.314Z,9.25
2023-04-09T21:04:15.050Z,9.32
2023-04-09T21:07:17.852Z,9.27
2023-04-09T21:10:20.428Z,9.20
2023-04-09T21:13:23.700Z,8.57
2023-04-09T21:16:28.575Z,8.73
2023-04-09T21:19:31.645Z,8.83
2023-04-09T21:22:34.632Z,9.05
2023-04-09T21:25:37.313Z,9.07
2023-04-09T21:28:39.756Z,8.77
2023-04-09T21:31:42.751Z,9.40
2023-04-09T21:34:45.314Z,9.17
2023-04-09T21:37:48.152Z,8.18
2023-04-09T21:40:50.698Z,8.82
2023-04-09T21:43:53.421Z,9.45
2023-04-09T21:46:56.370Z,9.20
2023-04-09T21:49:59.607Z,9.70
2023-04-09T21:53:03.242Z,9.57
2023-04-09T21:56:06.328Z,9.57
2023-04-09T21:59:08.769Z,9.18
2023-04-09T22:02:11.899Z,10.48
2023-04-09T22:05:14.766Z,10.13
2023-04-09T22:08:17.259Z,10.43
2023-04-09T22:11:20.152Z,10.10
2023-04-09T22:14:22.531Z,11.10
2023-04-09T22:17:25.591Z,11.35
2023-04-09T22:20:27.973Z,10.07
2023-04-09T22:23:30.710Z,10.95
2023-04-09T22:26:33.470Z,10.35
2023-04-09T22:29:37.129Z,10.15
2023-04-09T22:32:39.546Z,10.32
2023-04-09T22:35:42.227Z,10.73
2023-04-09T22:38:44.886Z,10.15
2023-04-09T22:41:47.594Z,11.15
2023-04-09T22:44:50.205Z,10.75
2023-04-09T22:47:52.975Z,10.73
2023-04-09T22:50:55.359Z,12.43
2023-04-09T22:53:58.031Z,11.48
2023-04-09T22:57:01.280Z,11.77
2023-04-09T23:00:05.653Z,11.27
2023-04-09T23:03:08.346Z,11.57
2023-04-09T23:06:11.180Z,11.93
2023-04-09T23:09:13.536Z,11.93
2023-04-09T23:12:16.205Z,12.30
2023-04-09T23:15:19.051Z,12.27
2023-04-09T23:18:23.050Z,12.63
2023-04-09T23:21:26.365Z,12.30
2023-04-09T23:24:29.580Z,12.70
2023-04-09T23:27:32.095Z,12.75
2023-04-09T23:30:34.952Z,12.93
2023-04-09T23:33:37.335Z,12.70
2023-04-09T23:36:40.065Z,12.23
2023-04-09T23:39:42.530Z,12.50
2023-04-09T23:42:45.827Z,12.48
2023-04-09T23:45:50.492Z,12.63
2023-04-09T23:48:53.340Z,12.25
2023-04-09T23:51:55.665Z,12.47
2023-04-09T23:55:00.002Z,12.07
2023-04-09T23:58:02.489Z,12.18
